Voge Trust — A8RR2 — position and weather

sailwx.info

Track history (hours):
 
Tides and Currents Weather Stations Pressure Air Temp Water Temp Dewpoint Dewpoint Depression Visibility Wind Speed Wind Dir Waves Ship Positions

Voge Trust

Last reported at 2018-Feb-14 09:24 UTC. Time now 2018-Feb-18 06:53 UTC.
Position N 35°59' E 013°44'.

Length 183 m; draft 7 m.

Type: Ship. MMSI: 636091701.

Date/timePositionNaut miles runAvg speedWind from/ knotsBaromVisibWave heightAir tempDewpointWater temp
2018-Feb-14 09:24N 35°59' E 013°44'510.9
2018-Feb-14 08:59N 35°56' E 013°48'510.7
2018-Feb-14 08:29N 35°52' E 013°52'610.5
2018-Feb-14 07:53N 35°48' E 013°58'410.7
2018-Feb-14 07:29N 35°45' E 014°02'510.8
2018-Feb-14 07:00N 35°42' E 014°07'510.7
2018-Feb-14 06:29N 35°38' E 014°12'710.6
2018-Feb-14 05:52N 35°34' E 014°18'510.1
2018-Feb-14 05:25N 35°31' E 014°23'  
Track history (hours):
 
Tides and Currents Weather Stations Pressure Air Temp Water Temp Dewpoint Dewpoint Depression Visibility Wind Speed Wind Dir Waves Ship Positions

Voge Trust

Last reported at 2018-Feb-14 09:24 UTC. Time now 2018-Feb-18 06:53 UTC.
Position N 35°59' E 013°44'.

Length 183 m; draft 7 m.

Type: Ship. MMSI: 636091701.

Date/timePositionNaut miles runAvg speedWind from/ knotsBaromVisibWave heightAir tempDewpointWater temp
2018-Feb-14 09:24N 35°59' E 013°44'510.9
2018-Feb-14 08:59N 35°56' E 013°48'510.7
2018-Feb-14 08:29N 35°52' E 013°52'610.5
2018-Feb-14 07:53N 35°48' E 013°58'410.7
2018-Feb-14 07:29N 35°45' E 014°02'510.8
2018-Feb-14 07:00N 35°42' E 014°07'510.7
2018-Feb-14 06:29N 35°38' E 014°12'710.6
2018-Feb-14 05:52N 35°34' E 014°18'510.1
2018-Feb-14 05:25N 35°31' E 014°23'  

Dump ship's entire track history